sensor_id;sensor_type;location;lat;lon;timestamp;pressure;altitude;pressure_sealevel;temperature;humidity
74868;BME280;63419;42.262;12.210;2023-03-01T00:02:25;96924.28;;;11.36;100.00
74868;BME280;63419;42.262;12.210;2023-03-01T00:04:52;96920.88;;;11.38;100.00
74868;BME280;63419;42.262;12.210;2023-03-01T00:07:37;96917.03;;;11.40;100.00
74868;BME280;63419;42.262;12.210;2023-03-01T00:10:05;96912.94;;;11.38;100.00
74868;BME280;63419;42.262;12.210;2023-03-01T00:12:32;96910.06;;;11.33;100.00
74868;BME280;63419;42.262;12.210;2023-03-01T00:14:59;96907.13;;;11.38;100.00
74868;BME280;63419;42.262;12.210;2023-03-01T00:17:27;96904.94;;;11.35;100.00
74868;BME280;63419;42.262;12.210;2023-03-01T00:19:55;96903.34;;;11.33;100.00
74868;BME280;63419;42.262;12.210;2023-03-01T00:22:22;96902.81;;;11.31;100.00
74868;BME280;63419;42.262;12.210;2023-03-01T00:24:51;96901.41;;;11.33;100.00
74868;BME280;63419;42.262;12.210;2023-03-01T00:27:18;96900.19;;;11.29;100.00
74868;BME280;63419;42.262;12.210;2023-03-01T00:29:46;96900.06;;;11.22;100.00
74868;BME280;63419;42.262;12.210;2023-03-01T00:32:13;96900.44;;;11.18;100.00
74868;BME280;63419;42.262;12.210;2023-03-01T00:34:40;96901.38;;;11.11;100.00
74868;BME280;63419;42.262;12.210;2023-03-01T00:37:07;96901.81;;;11.08;100.00
74868;BME280;63419;42.262;12.210;2023-03-01T00:39:35;96902.91;;;11.12;100.00
74868;BME280;63419;42.262;12.210;2023-03-01T00:42:10;96905.03;;;11.10;100.00
74868;BME280;63419;42.262;12.210;2023-03-01T00:44:37;96907.13;;;11.13;100.00
74868;BME280;63419;42.262;12.210;2023-03-01T00:47:04;96909.66;;;11.13;100.00
74868;BME280;63419;42.262;12.210;2023-03-01T00:49:31;96912.66;;;11.17;100.00
74868;BME280;63419;42.262;12.210;2023-03-01T00:51:59;96915.38;;;11.24;100.00
74868;BME280;63419;42.262;12.210;2023-03-01T00:54:26;96918.06;;;11.27;100.00
74868;BME280;63419;42.262;12.210;2023-03-01T00:56:53;96920.56;;;11.22;100.00
74868;BME280;63419;42.262;12.210;2023-03-01T00:59:22;96923.56;;;11.17;100.00
74868;BME280;63419;42.262;12.210;2023-03-01T01:01:51;96926.22;;;11.17;100.00
74868;BME280;63419;42.262;12.210;2023-03-01T01:04:19;96929.91;;;11.16;100.00
74868;BME280;63419;42.262;12.210;2023-03-01T01:06:48;96932.44;;;11.11;100.00
74868;BME280;63419;42.262;12.210;2023-03-01T01:09:17;96934.53;;;11.09;100.00
74868;BME280;63419;42.262;12.210;2023-03-01T01:11:49;96935.34;;;11.09;100.00
74868;BME280;63419;42.262;12.210;2023-03-01T01:14:18;96935.34;;;11.12;100.00
74868;BME280;63419;42.262;12.210;2023-03-01T01:16:46;96937.25;;;11.16;100.00
74868;BME280;63419;42.262;12.210;2023-03-01T01:19:15;96937.44;;;11.17;100.00
74868;BME280;63419;42.262;12.210;2023-03-01T01:21:47;96935.66;;;11.11;100.00
74868;BME280;63419;42.262;12.210;2023-03-01T01:24:16;96935.03;;;11.01;100.00
74868;BME280;63419;42.262;12.210;2023-03-01T01:26:44;96933.56;;;11.01;100.00
74868;BME280;63419;42.262;12.210;2023-03-01T01:29:13;96930.66;;;11.05;100.00
74868;BME280;63419;42.262;12.210;2023-03-01T01:31:43;96928.78;;;11.11;100.00
74868;BME280;63419;42.262;12.210;2023-03-01T01:34:19;96925.44;;;11.15;100.00
74868;BME280;63419;42.262;12.210;2023-03-01T01:36:54;96921.16;;;11.15;100.00
74868;BME280;63419;42.262;12.210;2023-03-01T01:39:22;96917.69;;;11.14;100.00
74868;BME280;63419;42.262;12.210;2023-03-01T01:41:51;96913.41;;;11.04;100.00
74868;BME280;63419;42.262;12.210;2023-03-01T01:44:26;96910.00;;;11.00;100.00
74868;BME280;63419;42.262;12.210;2023-03-01T01:47:22;96905.63;;;10.92;100.00
74868;BME280;63419;42.262;12.210;2023-03-01T01:49:54;96901.91;;;10.92;100.00
74868;BME280;63419;42.262;12.210;2023-03-01T01:52:31;96897.13;;;10.93;100.00
74868;BME280;63419;42.262;12.210;2023-03-01T01:55:12;96891.97;;;10.99;100.00
74868;BME280;63419;42.262;12.210;2023-03-01T01:57:54;96888.50;;;11.10;100.00
74868;BME280;63419;42.262;12.210;2023-03-01T02:00:29;96885.69;;;11.16;100.00
74868;BME280;63419;42.262;12.210;2023-03-01T02:03:05;96882.56;;;11.25;100.00
74868;BME280;63419;42.262;12.210;2023-03-01T02:06:37;96880.31;;;11.26;100.00
74868;BME280;63419;42.262;12.210;2023-03-01T02:09:14;96878.34;;;11.28;100.00
74868;BME280;63419;42.262;12.210;2023-03-01T02:11:44;96875.19;;;11.22;100.00
74868;BME280;63419;42.262;12.210;2023-03-01T02:14:11;96873.75;;;11.17;100.00
74868;BME280;63419;42.262;12.210;2023-03-01T02:16:38;96872.44;;;11.13;100.00
74868;BME280;63419;42.262;12.210;2023-03-01T02:19:14;96872.38;;;11.11;100.00
74868;BME280;63419;42.262;12.210;2023-03-01T02:30:48;96875.06;;;11.01;100.00
74868;BME280;63419;42.262;12.210;2023-03-01T02:33:38;96875.84;;;10.94;100.00
74868;BME280;63419;42.262;12.210;2023-03-01T02:36:14;96877.09;;;10.90;100.00
74868;BME280;63419;42.262;12.210;2023-03-01T02:38:43;96878.44;;;10.96;100.00
74868;BME280;63419;42.262;12.210;2023-03-01T02:41:15;96879.72;;;11.08;100.00
74868;BME280;63419;42.262;12.210;2023-03-01T02:43:45;96882.19;;;11.09;100.00
74868;BME280;63419;42.262;12.210;2023-03-01T02:46:21;96883.41;;;11.07;100.00
74868;BME280;63419;42.262;12.210;2023-03-01T02:48:55;96884.75;;;11.01;100.00
74868;BME280;63419;42.262;12.210;2023-03-01T02:51:47;96886.09;;;10.98;100.00
74868;BME280;63419;42.262;12.210;2023-03-01T02:54:31;96887.94;;;10.94;100.00
74868;BME280;63419;42.262;12.210;2023-03-01T02:57:01;96888.69;;;10.92;100.00
74868;BME280;63419;42.262;12.210;2023-03-01T02:59:33;96889.75;;;10.90;100.00
74868;BME280;63419;42.262;12.210;2023-03-01T03:02:07;96890.53;;;10.91;100.00
74868;BME280;63419;42.262;12.210;2023-03-01T03:04:47;96892.13;;;10.89;100.00
74868;BME280;63419;42.262;12.210;2023-03-01T03:07:14;96892.69;;;10.99;100.00
74868;BME280;63419;42.262;12.210;2023-03-01T03:09:43;96892.59;;;10.99;100.00
74868;BME280;63419;42.262;12.210;2023-03-01T03:12:14;96892.31;;;11.02;100.00
74868;BME280;63419;42.262;12.210;2023-03-01T03:14:41;96891.75;;;11.05;100.00
74868;BME280;63419;42.262;12.210;2023-03-01T03:17:08;96890.09;;;11.10;100.00
74868;BME280;63419;42.262;12.210;2023-03-01T03:19:36;96888.69;;;11.16;100.00
74868;BME280;63419;42.262;12.210;2023-03-01T03:22:03;96887.09;;;11.14;100.00
74868;BME280;63419;42.262;12.210;2023-03-01T03:24:30;96885.34;;;11.13;100.00
74868;BME280;63419;42.262;12.210;2023-03-01T03:27:07;96884.13;;;11.15;100.00
74868;BME280;63419;42.262;12.210;2023-03-01T03:29:34;96882.09;;;11.15;100.00
74868;BME280;63419;42.262;12.210;2023-03-01T03:32:01;96880.69;;;11.14;100.00
74868;BME280;63419;42.262;12.210;2023-03-01T03:34:30;96879.88;;;11.13;100.00
74868;BME280;63419;42.262;12.210;2023-03-01T03:36:57;96877.25;;;11.14;100.00
74868;BME280;63419;42.262;12.210;2023-03-01T03:39:26;96873.16;;;11.04;100.00
74868;BME280;63419;42.262;12.210;2023-03-01T03:41:57;96868.88;;;10.93;100.00
74868;BME280;63419;42.262;12.210;2023-03-01T03:44:25;96864.63;;;10.82;100.00
74868;BME280;63419;42.262;12.210;2023-03-01T03:46:52;96862.00;;;10.71;100.00
74868;BME280;63419;42.262;12.210;2023-03-01T03:49:19;96859.16;;;10.64;100.00
74868;BME280;63419;42.262;12.210;2023-03-01T03:51:47;96858.31;;;10.56;100.00
74868;BME280;63419;42.262;12.210;2023-03-01T03:54:15;96860.31;;;10.46;100.00
74868;BME280;63419;42.262;12.210;2023-03-01T03:56:44;96862.50;;;10.43;100.00
74868;BME280;63419;42.262;12.210;2023-03-01T03:59:12;96865.88;;;10.37;100.00
74868;BME280;63419;42.262;12.210;2023-03-01T04:01:40;96868.16;;;10.40;100.00
74868;BME280;63419;42.262;12.210;2023-03-01T04:04:08;96869.69;;;10.46;100.00
74868;BME280;63419;42.262;12.210;2023-03-01T04:06:36;96871.22;;;10.51;100.00
74868;BME280;63419;42.262;12.210;2023-03-01T04:09:03;96873.38;;;10.47;100.00
74868;BME280;63419;42.262;12.210;2023-03-01T04:11:31;96874.63;;;10.43;100.00
74868;BME280;63419;42.262;12.210;2023-03-01T04:13:58;96877.03;;;10.44;100.00
74868;BME280;63419;42.262;12.210;2023-03-01T04:16:28;96879.00;;;10.44;100.00
74868;BME280;63419;42.262;12.210;2023-03-01T04:18:56;96881.75;;;10.46;100.00
74868;BME280;63419;42.262;12.210;2023-03-01T04:21:24;96883.19;;;10.54;100.00
74868;BME280;63419;42.262;12.210;2023-03-01T04:23:52;96886.25;;;10.54;100.00
74868;BME280;63419;42.262;12.210;2023-03-01T04:26:21;96888.88;;;10.56;100.00
74868;BME280;63419;42.262;12.210;2023-03-01T04:28:48;96890.81;;;10.58;100.00
74868;BME280;63419;42.262;12.210;2023-03-01T04:31:22;96893.47;;;10.56;100.00
74868;BME280;63419;42.262;12.210;2023-03-01T04:33:54;96894.44;;;10.56;100.00
74868;BME280;63419;42.262;12.210;2023-03-01T04:36:26;96894.28;;;10.61;100.00
74868;BME280;63419;42.262;12.210;2023-03-01T04:44:29;96895.56;;;10.69;100.00
74868;BME280;63419;42.262;12.210;2023-03-01T04:46:57;96894.41;;;10.71;100.00
74868;BME280;63419;42.262;12.210;2023-03-01T04:49:25;96892.59;;;10.67;100.00
74868;BME280;63419;42.262;12.210;2023-03-01T04:51:52;96892.38;;;10.64;100.00
74868;BME280;63419;42.262;12.210;2023-03-01T04:54:19;96889.72;;;10.65;100.00
74868;BME280;63419;42.262;12.210;2023-03-01T04:56:46;96888.59;;;10.71;100.00
74868;BME280;63419;42.262;12.210;2023-03-01T04:59:13;96887.16;;;10.68;100.00
74868;BME280;63419;42.262;12.210;2023-03-01T05:01:40;96885.47;;;10.63;100.00
74868;BME280;63419;42.262;12.210;2023-03-01T05:04:09;96884.28;;;10.58;100.00
74868;BME280;63419;42.262;12.210;2023-03-01T05:06:40;96884.72;;;10.59;100.00
74868;BME280;63419;42.262;12.210;2023-03-01T05:09:07;96884.38;;;10.62;100.00
74868;BME280;63419;42.262;12.210;2023-03-01T05:11:34;96885.00;;;10.63;100.00
74868;BME280;63419;42.262;12.210;2023-03-01T05:14:04;96884.13;;;10.62;100.00
74868;BME280;63419;42.262;12.210;2023-03-01T05:16:32;96883.72;;;10.61;100.00
74868;BME280;63419;42.262;12.210;2023-03-01T05:19:03;96882.59;;;10.61;100.00
74868;BME280;63419;42.262;12.210;2023-03-01T05:21:43;96882.06;;;10.54;100.00
74868;BME280;63419;42.262;12.210;2023-03-01T05:24:31;96881.56;;;10.55;100.00
74868;BME280;63419;42.262;12.210;2023-03-01T05:27:01;96881.41;;;10.53;100.00
74868;BME280;63419;42.262;12.210;2023-03-01T05:29:31;96881.16;;;10.51;100.00
74868;BME280;63419;42.262;12.210;2023-03-01T05:32:02;96882.19;;;10.51;100.00
74868;BME280;63419;42.262;12.210;2023-03-01T05:34:34;96882.09;;;10.53;100.00
74868;BME280;63419;42.262;12.210;2023-03-01T05:37:03;96882.69;;;10.51;100.00
74868;BME280;63419;42.262;12.210;2023-03-01T05:39:30;96882.81;;;10.52;100.00
74868;BME280;63419;42.262;12.210;2023-03-01T05:42:01;96883.25;;;10.51;100.00
74868;BME280;63419;42.262;12.210;2023-03-01T05:44:29;96883.88;;;10.56;100.00
74868;BME280;63419;42.262;12.210;2023-03-01T05:46:56;96884.59;;;10.58;100.00
74868;BME280;63419;42.262;12.210;2023-03-01T05:49:24;96884.94;;;10.67;100.00
74868;BME280;63419;42.262;12.210;2023-03-01T05:51:53;96885.53;;;10.70;100.00
74868;BME280;63419;42.262;12.210;2023-03-01T05:54:21;96886.19;;;10.76;100.00
74868;BME280;63419;42.262;12.210;2023-03-01T05:56:48;96888.34;;;10.73;100.00
74868;BME280;63419;42.262;12.210;2023-03-01T05:59:16;96890.50;;;10.61;100.00
74868;BME280;63419;42.262;12.210;2023-03-01T06:01:43;96891.81;;;10.55;100.00
74868;BME280;63419;42.262;12.210;2023-03-01T06:04:10;96894.50;;;10.42;100.00
74868;BME280;63419;42.262;12.210;2023-03-01T06:06:41;96895.88;;;10.41;100.00
74868;BME280;63419;42.262;12.210;2023-03-01T06:09:08;96897.72;;;10.47;100.00
74868;BME280;63419;42.262;12.210;2023-03-01T06:11:37;96899.09;;;10.57;100.00
74868;BME280;63419;42.262;12.210;2023-03-01T06:14:05;96900.81;;;10.51;100.00
74868;BME280;63419;42.262;12.210;2023-03-01T06:16:33;96901.97;;;10.41;100.00
74868;BME280;63419;42.262;12.210;2023-03-01T06:19:00;96903.00;;;10.41;100.00
74868;BME280;63419;42.262;12.210;2023-03-01T06:21:28;96904.25;;;10.24;100.00
74868;BME280;63419;42.262;12.210;2023-03-01T06:23:55;96905.97;;;10.29;100.00
74868;BME280;63419;42.262;12.210;2023-03-01T06:26:22;96909.19;;;10.12;100.00
74868;BME280;63419;42.262;12.210;2023-03-01T06:28:51;96912.28;;;10.06;100.00
74868;BME280;63419;42.262;12.210;2023-03-01T06:31:19;96913.84;;;10.19;100.00
74868;BME280;63419;42.262;12.210;2023-03-01T06:33:48;96915.63;;;10.31;100.00
74868;BME280;63419;42.262;12.210;2023-03-01T06:36:15;96916.03;;;10.33;100.00
74868;BME280;63419;42.262;12.210;2023-03-01T06:38:45;96916.69;;;10.45;100.00
74868;BME280;63419;42.262;12.210;2023-03-01T06:41:12;96917.38;;;10.57;100.00
74868;BME280;63419;42.262;12.210;2023-03-01T06:43:40;96916.97;;;10.67;100.00
74868;BME280;63419;42.262;12.210;2023-03-01T06:46:07;96916.09;;;10.83;100.00
74868;BME280;63419;42.262;12.210;2023-03-01T06:48:35;96915.66;;;11.04;100.00
74868;BME280;63419;42.262;12.210;2023-03-01T06:51:02;96914.63;;;11.18;100.00
74868;BME280;63419;42.262;12.210;2023-03-01T06:53:30;96914.53;;;11.29;100.00
74868;BME280;63419;42.262;12.210;2023-03-01T06:55:58;96914.34;;;11.28;100.00
74868;BME280;63419;42.262;12.210;2023-03-01T06:58:27;96913.72;;;11.26;100.00
74868;BME280;63419;42.262;12.210;2023-03-01T07:00:54;96914.59;;;11.31;100.00
74868;BME280;63419;42.262;12.210;2023-03-01T07:03:21;96913.91;;;11.38;100.00
74868;BME280;63419;42.262;12.210;2023-03-01T07:05:50;96913.56;;;11.48;100.00
74868;BME280;63419;42.262;12.210;2023-03-01T07:08:20;96913.19;;;11.55;100.00
74868;BME280;63419;42.262;12.210;2023-03-01T07:10:47;96913.22;;;11.60;100.00
74868;BME280;63419;42.262;12.210;2023-03-01T07:13:18;96915.41;;;11.51;100.00
74868;BME280;63419;42.262;12.210;2023-03-01T07:15:45;96917.88;;;11.39;100.00
74868;BME280;63419;42.262;12.210;2023-03-01T07:18:12;96917.94;;;11.40;100.00
74868;BME280;63419;42.262;12.210;2023-03-01T07:20:42;96918.50;;;11.28;100.00
74868;BME280;63419;42.262;12.210;2023-03-01T07:23:12;96920.06;;;11.39;100.00
74868;BME280;63419;42.262;12.210;2023-03-01T07:25:43;96920.59;;;11.46;100.00
74868;BME280;63419;42.262;12.210;2023-03-01T07:28:20;96920.06;;;11.53;100.00
74868;BME280;63419;42.262;12.210;2023-03-01T07:30:54;96920.41;;;11.59;100.00
74868;BME280;63419;42.262;12.210;2023-03-01T07:33:24;96919.56;;;11.61;100.00
74868;BME280;63419;42.262;12.210;2023-03-01T07:36:00;96919.44;;;11.77;100.00
74868;BME280;63419;42.262;12.210;2023-03-01T07:38:32;96920.22;;;11.94;100.00
74868;BME280;63419;42.262;12.210;2023-03-01T07:41:04;96920.06;;;12.02;100.00
74868;BME280;63419;42.262;12.210;2023-03-01T07:43:37;96918.38;;;12.18;100.00
74868;BME280;63419;42.262;12.210;2023-03-01T07:46:13;96918.13;;;12.27;100.00
74868;BME280;63419;42.262;12.210;2023-03-01T07:48:46;96918.75;;;12.31;100.00
74868;BME280;63419;42.262;12.210;2023-03-01T07:51:13;96920.28;;;12.36;100.00
74868;BME280;63419;42.262;12.210;2023-03-01T07:53:41;96921.09;;;12.40;100.00
74868;BME280;63419;42.262;12.210;2023-03-01T07:56:11;96921.88;;;12.46;100.00
74868;BME280;63419;42.262;12.210;2023-03-01T07:58:42;96921.88;;;12.66;100.00
74868;BME280;63419;42.262;12.210;2023-03-01T08:01:14;96922.91;;;12.72;100.00
74868;BME280;63419;42.262;12.210;2023-03-01T08:03:42;96923.97;;;12.76;100.00
74868;BME280;63419;42.262;12.210;2023-03-01T08:06:15;96924.34;;;12.81;100.00
74868;BME280;63419;42.262;12.210;2023-03-01T08:08:44;96923.88;;;12.94;100.00
74868;BME280;63419;42.262;12.210;2023-03-01T08:11:16;96924.13;;;13.04;100.00
74868;BME280;63419;42.262;12.210;2023-03-01T08:13:48;96924.97;;;13.19;100.00
74868;BME280;63419;42.262;12.210;2023-03-01T08:16:20;96925.81;;;13.25;100.00
74868;BME280;63419;42.262;12.210;2023-03-01T08:18:52;96927.72;;;13.34;100.00
74868;BME280;63419;42.262;12.210;2023-03-01T08:21:22;96928.56;;;13.47;100.00
74868;BME280;63419;42.262;12.210;2023-03-01T08:23:50;96929.50;;;13.60;100.00
74868;BME280;63419;42.262;12.210;2023-03-01T08:26:22;96930.63;;;13.61;100.00
74868;BME280;63419;42.262;12.210;2023-03-01T08:28:51;96931.94;;;13.67;100.00
74868;BME280;63419;42.262;12.210;2023-03-01T08:31:27;96932.94;;;13.68;100.00
74868;BME280;63419;42.262;12.210;2023-03-01T08:34:00;96933.50;;;13.66;100.00
74868;BME280;63419;42.262;12.210;2023-03-01T08:36:39;96935.38;;;13.69;100.00
74868;BME280;63419;42.262;12.210;2023-03-01T08:39:12;96935.84;;;13.84;100.00
74868;BME280;63419;42.262;12.210;2023-03-01T08:41:42;96934.81;;;14.06;100.00
74868;BME280;63419;42.262;12.210;2023-03-01T08:44:13;96935.19;;;14.22;100.00
74868;BME280;63419;42.262;12.210;2023-03-01T08:46:50;96935.59;;;14.36;100.00
74868;BME280;63419;42.262;12.210;2023-03-01T08:49:21;96934.97;;;14.56;100.00
74868;BME280;63419;42.262;12.210;2023-03-01T08:51:51;96936.03;;;14.86;100.00
74868;BME280;63419;42.262;12.210;2023-03-01T08:54:20;96935.34;;;15.17;100.00
74868;BME280;63419;42.262;12.210;2023-03-01T08:56:51;96935.91;;;15.36;100.00
74868;BME280;63419;42.262;12.210;2023-03-01T08:59:19;96935.31;;;15.46;100.00
74868;BME280;63419;42.262;12.210;2023-03-01T09:01:47;96935.38;;;15.50;100.00
74868;BME280;63419;42.262;12.210;2023-03-01T09:04:17;96935.69;;;15.47;100.00
74868;BME280;63419;42.262;12.210;2023-03-01T09:06:47;96935.66;;;15.49;100.00
74868;BME280;63419;42.262;12.210;2023-03-01T09:09:17;96935.88;;;15.57;100.00
74868;BME280;63419;42.262;12.210;2023-03-01T09:11:46;96936.44;;;15.57;100.00
74868;BME280;63419;42.262;12.210;2023-03-01T09:14:14;96937.09;;;15.65;100.00
74868;BME280;63419;42.262;12.210;2023-03-01T09:16:43;96937.94;;;15.72;100.00
74868;BME280;63419;42.262;12.210;2023-03-01T09:19:14;96937.97;;;15.65;100.00
74868;BME280;63419;42.262;12.210;2023-03-01T09:21:45;96939.44;;;15.58;100.00
74868;BME280;63419;42.262;12.210;2023-03-01T09:24:21;96940.31;;;15.61;100.00
74868;BME280;63419;42.262;12.210;2023-03-01T09:26:53;96941.34;;;15.65;100.00
74868;BME280;63419;42.262;12.210;2023-03-01T09:29:22;96942.22;;;15.67;100.00
74868;BME280;63419;42.262;12.210;2023-03-01T09:31:51;96942.31;;;15.51;100.00
74868;BME280;63419;42.262;12.210;2023-03-01T09:34:23;96942.50;;;15.36;100.00
74868;BME280;63419;42.262;12.210;2023-03-01T09:36:57;96942.75;;;15.36;100.00
74868;BME280;63419;42.262;12.210;2023-03-01T09:39:30;96942.09;;;15.42;100.00
74868;BME280;63419;42.262;12.210;2023-03-01T09:42:04;96941.13;;;15.54;100.00
74868;BME280;63419;42.262;12.210;2023-03-01T09:44:51;96940.03;;;15.75;100.00
74868;BME280;63419;42.262;12.210;2023-03-01T09:47:29;96938.25;;;15.98;100.00
74868;BME280;63419;42.262;12.210;2023-03-01T09:50:17;96937.75;;;16.05;100.00
74868;BME280;63419;42.262;12.210;2023-03-01T09:53:33;96937.44;;;16.07;100.00
74868;BME280;63419;42.262;12.210;2023-03-01T09:56:27;96938.06;;;16.12;100.00
74868;BME280;63419;42.262;12.210;2023-03-01T09:59:23;96938.56;;;16.03;100.00
74868;BME280;63419;42.262;12.210;2023-03-01T10:01:58;96940.66;;;15.87;100.00
74868;BME280;63419;42.262;12.210;2023-03-01T10:04:54;96942.94;;;15.87;100.00
74868;BME280;63419;42.262;12.210;2023-03-01T10:10:47;96947.25;;;15.90;100.00
74868;BME280;63419;42.262;12.210;2023-03-01T10:13:28;96948.69;;;15.92;100.00
74868;BME280;63419;42.262;12.210;2023-03-01T10:16:48;96950.94;;;15.97;100.00
74868;BME280;63419;42.262;12.210;2023-03-01T10:19:45;96952.81;;;16.00;100.00
74868;BME280;63419;42.262;12.210;2023-03-01T10:22:27;96954.66;;;15.89;100.00
74868;BME280;63419;42.262;12.210;2023-03-01T10:24:59;96957.44;;;15.92;100.00
74868;BME280;63419;42.262;12.210;2023-03-01T10:28:05;96958.25;;;16.07;100.00
74868;BME280;63419;42.262;12.210;2023-03-01T10:30:40;96959.91;;;16.25;100.00
74868;BME280;63419;42.262;12.210;2023-03-01T10:33:31;96960.44;;;16.38;100.00
74868;BME280;63419;42.262;12.210;2023-03-01T10:35:59;96961.16;;;16.42;100.00
74868;BME280;63419;42.262;12.210;2023-03-01T10:38:31;96961.97;;;16.54;100.00
74868;BME280;63419;42.262;12.210;2023-03-01T10:41:15;96963.28;;;16.51;100.00
74868;BME280;63419;42.262;12.210;2023-03-01T10:43:57;96964.97;;;16.40;100.00
74868;BME280;63419;42.262;12.210;2023-03-01T10:46:36;96965.66;;;16.38;100.00
74868;BME280;63419;42.262;12.210;2023-03-01T10:49:21;96966.91;;;16.34;100.00
74868;BME280;63419;42.262;12.210;2023-03-01T10:51:54;96967.25;;;16.36;100.00
74868;BME280;63419;42.262;12.210;2023-03-01T10:54:32;96967.84;;;16.31;100.00
74868;BME280;63419;42.262;12.210;2023-03-01T10:57:03;96968.78;;;16.25;100.00
74868;BME280;63419;42.262;12.210;2023-03-01T10:59:37;96968.72;;;16.18;100.00
74868;BME280;63419;42.262;12.210;2023-03-01T11:05:23;96969.66;;;16.14;100.00
74868;BME280;63419;42.262;12.210;2023-03-01T11:07:58;96969.72;;;16.05;100.00
74868;BME280;63419;42.262;12.210;2023-03-01T11:10:33;96970.94;;;16.07;100.00
74868;BME280;63419;42.262;12.210;2023-03-01T11:13:27;96971.66;;;16.03;100.00
74868;BME280;63419;42.262;12.210;2023-03-01T11:16:06;96972.38;;;15.89;100.00
74868;BME280;63419;42.262;12.210;2023-03-01T11:18:34;96972.56;;;15.84;100.00
74868;BME280;63419;42.262;12.210;2023-03-01T11:21:16;96972.34;;;15.78;100.00
74868;BME280;63419;42.262;12.210;2023-03-01T11:23:46;96972.63;;;15.67;100.00
74868;BME280;63419;42.262;12.210;2023-03-01T11:26:17;96972.75;;;15.56;100.00
74868;BME280;63419;42.262;12.210;2023-03-01T11:28:51;96972.34;;;15.55;100.00
74868;BME280;63419;42.262;12.210;2023-03-01T11:31:26;96971.03;;;15.54;100.00
74868;BME280;63419;42.262;12.210;2023-03-01T11:34:08;96970.19;;;15.53;100.00
74868;BME280;63419;42.262;12.210;2023-03-01T11:36:59;96968.72;;;15.66;100.00
74868;BME280;63419;42.262;12.210;2023-03-01T11:40:16;96967.00;;;15.80;100.00
74868;BME280;63419;42.262;12.210;2023-03-01T11:46:21;96962.91;;;16.13;100.00
74868;BME280;63419;42.262;12.210;2023-03-01T11:52:33;96955.28;;;16.78;100.00
74868;BME280;63419;42.262;12.210;2023-03-01T12:16:25;96917.94;;;20.87;100.00
74868;BME280;63419;42.262;12.210;2023-03-01T12:19:15;96913.25;;;21.15;100.00
74868;BME280;63419;42.262;12.210;2023-03-01T12:22:28;96908.63;;;21.51;100.00
74868;BME280;63419;42.262;12.210;2023-03-01T12:37:21;96884.78;;;23.01;62.65
74868;BME280;63419;42.262;12.210;2023-03-01T12:40:38;96883.53;;;22.76;100.00
74868;BME280;63419;42.262;12.210;2023-03-01T12:46:54;96876.63;;;22.27;100.00
74868;BME280;63419;42.262;12.210;2023-03-01T12:49:43;96873.16;;;22.39;100.00
74868;BME280;63419;42.262;12.210;2023-03-01T12:52:44;96869.28;;;22.34;100.00
74868;BME280;63419;42.262;12.210;2023-03-01T13:00:45;96859.53;;;22.50;100.00
74868;BME280;63419;42.262;12.210;2023-03-01T13:04:12;96854.88;;;22.77;100.00
74868;BME280;63419;42.262;12.210;2023-03-01T13:06:58;96849.91;;;23.29;86.63
74868;BME280;63419;42.262;12.210;2023-03-01T13:09:39;96843.53;;;24.07;58.72
74868;BME280;63419;42.262;12.210;2023-03-01T13:18:07;96835.81;;;23.47;100.00
74868;BME280;63419;42.262;12.210;2023-03-01T13:21:02;96834.69;;;23.22;100.00
74868;BME280;63419;42.262;12.210;2023-03-01T13:23:39;96831.88;;;23.12;100.00
74868;BME280;63419;42.262;12.210;2023-03-01T13:26:18;96830.28;;;22.91;100.00
74868;BME280;63419;42.262;12.210;2023-03-01T13:28:56;96827.63;;;23.25;77.40
74868;BME280;63419;42.262;12.210;2023-03-01T13:34:03;96820.78;;;24.00;67.54
74868;BME280;63419;42.262;12.210;2023-03-01T13:39:32;96816.22;;;23.84;84.24
74868;BME280;63419;42.262;12.210;2023-03-01T13:42:38;96813.94;;;23.73;100.00
74868;BME280;63419;42.262;12.210;2023-03-01T13:47:47;96809.44;;;23.20;100.00
74868;BME280;63419;42.262;12.210;2023-03-01T13:50:29;96809.34;;;22.86;100.00
74868;BME280;63419;42.262;12.210;2023-03-01T13:53:06;96808.59;;;22.49;100.00
74868;BME280;63419;42.262;12.210;2023-03-01T13:55:47;96808.63;;;22.00;100.00
74868;BME280;63419;42.262;12.210;2023-03-01T13:58:31;96809.63;;;21.52;100.00
74868;BME280;63419;42.262;12.210;2023-03-01T14:01:06;96811.06;;;20.97;100.00
74868;BME280;63419;42.262;12.210;2023-03-01T14:03:41;96811.75;;;20.59;100.00
74868;BME280;63419;42.262;12.210;2023-03-01T14:06:20;96810.44;;;20.72;100.00
74868;BME280;63419;42.262;12.210;2023-03-01T14:08:59;96809.06;;;21.22;100.00
74868;BME280;63419;42.262;12.210;2023-03-01T14:20:45;96803.13;;;23.53;79.61
74868;BME280;63419;42.262;12.210;2023-03-01T14:23:24;96802.41;;;23.46;100.00
74868;BME280;63419;42.262;12.210;2023-03-01T14:25:57;96801.59;;;23.51;100.00
74868;BME280;63419;42.262;12.210;2023-03-01T14:28:31;96799.56;;;23.72;97.13
74868;BME280;63419;42.262;12.210;2023-03-01T14:31:39;96797.94;;;23.84;89.79
74868;BME280;63419;42.262;12.210;2023-03-01T14:34:24;96796.44;;;24.26;82.33
74868;BME280;63419;42.262;12.210;2023-03-01T14:36:51;96794.75;;;24.59;77.49
74868;BME280;63419;42.262;12.210;2023-03-01T14:39:24;96794.59;;;24.80;77.37
74868;BME280;63419;42.262;12.210;2023-03-01T14:41:53;96794.34;;;24.96;85.93
74868;BME280;63419;42.262;12.210;2023-03-01T14:44:23;96793.69;;;25.02;84.06
74868;BME280;63419;42.262;12.210;2023-03-01T14:46:55;96793.75;;;25.12;81.54
74868;BME280;63419;42.262;12.210;2023-03-01T14:49:29;96793.59;;;25.02;90.48